Terminal Aerodrome Forecast
Issued by NWS Charleston, SC

Home | Current Version | Previous Version | Text Only | Print | Product List | Glossary On
Versions: 1 2 3 4 5 6 7 8 9 10 11 12 13 14
188
FTUS42 KCHS 292343
TAFCHS
TAF
KCHS 292343Z 3000/3024 12006KT P6SM FEW250
     FM300200 10005KT P6SM FEW005 SCT015
     FM300400 09004KT 6SM BR SCT004 BKN012
      TEMPO 3005/3009 5SM BR SCT004 BKN008
     FM300900 11007KT P6SM SCT008 BKN015
     FM301400 09012KT P6SM SCT030 BKN050=

USA.gov is the U.S. government's official web portal to all federal, state and local government web resources and services.